Terminal Aerodrome Forecast
Issued by NWS

Home | Current Version | Previous Version | Text Only | Print | Product List | Glossary On
Versions: 1 2 3 4 5 6 7 8 9 10 11 12 13 14 15
000
FTUS42 KFFC 291133
TAFRYY
TAF
KRYY 291133Z 2912/3012 36003KT P6SM FEW140 SCT250
     FM291400 35005KT P6SM FEW040 SCT120
     FM291800 35006KT P6SM SCT060 SCT120
     FM292300 35005KT P6SM FEW080
     FM300300 00000KT P6SM SKC=

USA.gov is the U.S. government's official web portal to all federal, state and local government web resources and services.